Time;durP1;ratioP1;P1;durP2;ratioP2;P2;SDS_P1;SDS_P2;PMS_P1;PMS_P2;Temp;Humidity;BMP_temperature;BMP_pressure;BME280_temperature;BME280_humidity;BME280_pressure;Samples;Min_cycle;Max_cycle;Signal;HPM_P1;HPM_P2
2021/12/11 00:00:19;;;;;;;;;32.25;29.00;;;;;15.08;51.50;97333.09;4844555;28;103741;-59
2021/12/11 00:02:54;;;;;;;;;31.50;26.00;;;;;15.11;51.15;97338.03;4824179;28;105368;-60
2021/12/11 00:05:21;;;;;;;;;30.75;28.25;;;;;15.13;51.28;97332.31;4827796;28;103942;-59
2021/12/11 00:07:48;;;;;;;;;32.75;28.25;;;;;15.15;51.14;97333.72;4847980;28;102995;-60
2021/12/11 00:10:25;;;;;;;;;31.00;27.25;;;;;15.18;51.19;97338.63;4829041;28;102846;-60
2021/12/11 00:12:55;;;;;;;;;29.50;27.50;;;;;15.21;51.07;97337.28;4829607;28;103384;-59
2021/12/11 00:15:35;;;;;;;;;29.00;26.25;;;;;15.24;51.01;97325.03;4845535;28;103231;-60
2021/12/11 00:18:08;;;;;;;;;31.25;25.25;;;;;15.27;50.96;97336.22;4822502;28;103220;-60
2021/12/11 00:20:38;;;;;;;;;30.00;25.00;;;;;15.29;50.68;97336.81;4819957;28;102769;-60
2021/12/11 00:23:06;;;;;;;;;30.50;27.75;;;;;15.33;50.87;97339.81;4863941;28;103484;-59
2021/12/11 00:25:40;;;;;;;;;31.00;27.50;;;;;15.34;51.16;97336.84;4848337;28;102756;-59
2021/12/11 00:28:08;;;;;;;;;32.00;28.00;;;;;15.35;50.38;97334.94;4826705;28;104230;-60
2021/12/11 00:30:40;;;;;;;;;40.75;28.25;;;;;15.36;50.57;97337.38;4844863;28;102862;-60
2021/12/11 00:33:19;;;;;;;;;33.00;26.75;;;;;15.38;50.45;97337.13;4840811;28;103279;-59
2021/12/11 00:35:47;;;;;;;;;24.00;22.00;;;;;15.40;50.65;97346.66;4844109;28;102748;-60
2021/12/11 00:38:19;;;;;;;;;30.00;23.50;;;;;15.42;50.55;97344.50;4837226;28;102568;-59
2021/12/11 00:40:47;;;;;;;;;26.75;23.50;;;;;15.44;50.47;97341.53;4813951;28;102795;-59
2021/12/11 00:43:17;;;;;;;;;29.25;25.50;;;;;15.45;50.64;97341.25;4841737;28;104354;-59
2021/12/11 00:45:45;;;;;;;;;27.75;25.00;;;;;15.47;50.43;97347.28;4842556;28;105075;-60
2021/12/11 00:48:21;;;;;;;;;26.50;21.75;;;;;15.48;50.41;97359.00;4825010;28;102743;-60
2021/12/11 00:50:51;;;;;;;;;26.75;24.00;;;;;15.51;50.23;97353.03;4844387;28;102527;-59
2021/12/11 00:53:55;;;;;;;;;31.50;27.25;;;;;15.52;49.98;97371.03;4853897;28;104233;-60
2021/12/11 00:56:31;;;;;;;;;29.50;27.50;;;;;15.53;50.05;97378.13;4809599;28;102735;-60
2021/12/11 00:59:00;;;;;;;;;25.75;25.50;;;;;15.55;49.66;97376.78;4846119;28;102469;-59
2021/12/11 01:01:36;;;;;;;;;35.00;30.25;;;;;15.56;49.67;97388.50;4821329;28;104219;-60
2021/12/11 01:04:06;;;;;;;;;29.00;24.50;;;;;15.57;49.74;97396.44;4814015;28;107636;-60
2021/12/11 01:06:52;;;;;;;;;31.75;22.00;;;;;15.58;49.94;97394.50;4838488;28;102482;-60
2021/12/11 01:09:29;;;;;;;;;29.00;25.00;;;;;15.59;49.94;97394.25;4843249;28;104063;-60
2021/12/11 01:12:07;;;;;;;;;28.00;25.50;;;;;15.62;49.56;97390.97;4842163;28;102695;-60
2021/12/11 01:15:13;;;;;;;;;27.00;25.25;;;;;15.62;49.81;97384.72;4825526;28;110401;-59
2021/12/11 01:18:21;;;;;;;;;27.50;25.00;;;;;15.64;49.61;97398.91;4828479;28;102803;-60
2021/12/11 01:20:59;;;;;;;;;30.25;25.25;;;;;15.65;49.50;97400.56;4829980;28;103536;-60
2021/12/11 01:23:45;;;;;;;;;30.00;25.50;;;;;15.65;49.52;97406.00;4829415;28;103682;-60
2021/12/11 01:26:15;;;;;;;;;31.50;26.25;;;;;15.67;49.38;97413.94;4840500;28;108366;-60
2021/12/11 01:28:42;;;;;;;;;28.00;27.25;;;;;15.66;49.64;97415.81;4826084;28;102444;-60
2021/12/11 01:31:12;;;;;;;;;28.25;25.00;;;;;15.66;49.04;97415.81;4820135;28;102947;-59
2021/12/11 01:33:40;;;;;;;;;31.00;26.75;;;;;15.69;49.45;97423.47;4808503;28;102755;-60
2021/12/11 01:36:08;;;;;;;;;32.00;25.00;;;;;15.69;49.46;97428.09;4820079;28;103817;-60
2021/12/11 01:38:36;;;;;;;;;26.25;24.75;;;;;15.69;48.99;97433.53;4824366;28;104258;-59
2021/12/11 01:41:07;;;;;;;;;29.50;27.00;;;;;15.69;48.64;97437.09;4819975;28;102511;-59
2021/12/11 01:43:36;;;;;;;;;24.00;22.75;;;;;15.71;48.96;97436.84;4838999;28;102627;-60
2021/12/11 01:46:03;;;;;;;;;28.75;24.25;;;;;15.71;49.25;97436.84;4820398;28;104122;-60
2021/12/11 01:48:33;;;;;;;;;29.00;25.50;;;;;15.70;48.96;97425.13;4813065;28;104397;-59
2021/12/11 01:51:12;;;;;;;;;30.75;28.50;;;;;15.71;49.33;97434.94;4835027;28;103451;-60
2021/12/11 01:53:46;;;;;;;;;29.00;26.50;;;;;15.73;49.23;97424.59;4819010;28;104288;-60
2021/12/11 01:56:16;;;;;;;;;31.25;27.50;;;;;15.74;49.07;97434.41;4821753;28;107460;-59
2021/12/11 01:59:08;;;;;;;;;28.50;24.75;;;;;15.74;49.03;97434.41;4832426;28;102816;-59
2021/12/11 02:01:52;;;;;;;;;32.25;25.25;;;;;15.75;49.03;97446.13;4808071;28;102664;-59
2021/12/11 02:04:22;;;;;;;;;26.75;24.50;;;;;15.76;48.75;97448.56;4808665;28;102921;-60
2021/12/11 02:06:50;;;;;;;;;31.25;27.25;;;;;15.76;48.70;97450.50;4812190;28;103722;-59
2021/12/11 02:09:22;;;;;;;;;36.25;28.50;;;;;15.76;49.08;97453.22;4803062;28;105299;-60
2021/12/11 02:11:52;;;;;;;;;31.50;27.00;;;;;15.75;48.92;97449.69;4809080;28;103000;-59
2021/12/11 02:14:26;;;;;;;;;34.00;29.50;;;;;15.76;48.70;97462.19;4823296;28;102630;-59
2021/12/11 02:16:53;;;;;;;;;26.00;25.00;;;;;15.77;49.11;97465.75;4818924;28;104353;-60
2021/12/11 02:19:31;;;;;;;;;25.25;22.25;;;;;15.76;48.27;97475.03;4816819;28;104871;-60
2021/12/11 02:22:02;;;;;;;;;33.75;26.25;;;;;15.75;48.47;97474.22;4813592;28;104273;-60
2021/12/11 02:24:47;;;;;;;;;33.25;26.50;;;;;15.76;48.66;97477.75;4824725;28;102620;-59
2021/12/11 02:27:20;;;;;;;;;28.25;26.50;;;;;15.76;48.59;97486.72;4831783;28;107790;-60
2021/12/11 02:29:54;;;;;;;;;33.25;30.25;;;;;15.76;48.22;97478.56;4839860;28;102353;-60
2021/12/11 02:32:33;;;;;;;;;33.00;27.00;;;;;15.76;48.27;97485.94;4831669;28;102524;-59
2021/12/11 02:35:09;;;;;;;;;27.50;25.25;;;;;15.75;48.47;97479.66;4844284;28;102415;-60
2021/12/11 02:38:05;;;;;;;;;26.75;24.00;;;;;15.75;48.55;97479.66;4814696;28;104296;-60
2021/12/11 02:40:55;;;;;;;;;29.00;26.00;;;;;15.76;48.54;97486.72;4843256;28;104764;-60
2021/12/11 02:43:37;;;;;;;;;35.00;22.00;;;;;15.78;48.59;97489.22;4851964;28;102442;-60
2021/12/11 02:46:24;;;;;;;;;27.00;24.25;;;;;15.78;48.12;97490.03;4848581;28;103536;-60
2021/12/11 02:48:56;;;;;;;;;30.25;23.50;;;;;15.75;47.68;97492.47;4817036;28;107435;-60
2021/12/11 02:51:33;;;;;;;;;33.50;29.25;;;;;15.77;48.50;97499.28;4829863;28;103882;-60
2021/12/11 02:54:31;;;;;;;;;28.00;24.25;;;;;15.77;48.51;97510.19;4857583;28;102603;-60
2021/12/11 02:57:04;;;;;;;;;25.25;22.00;;;;;15.77;48.14;97510.19;4827590;28;103589;-60
2021/12/11 02:59:39;;;;;;;;;26.75;26.00;;;;;15.76;47.65;97524.88;4842992;28;103774;-60
2021/12/11 03:02:11;;;;;;;;;25.25;21.00;;;;;15.77;47.99;97517.53;4852374;28;103382;-60
2021/12/11 03:04:46;;;;;;;;;27.50;24.50;;;;;15.76;48.19;97524.88;4843603;28;102834;-60
2021/12/11 03:07:15;;;;;;;;;24.00;24.00;;;;;15.77;47.96;97525.72;4840726;28;102976;-60
2021/12/11 03:09:49;;;;;;;;;26.50;23.25;;;;;15.76;48.16;97535.78;4839694;28;105104;-60
2021/12/11 03:12:16;;;;;;;;;25.50;21.25;;;;;15.75;47.70;97528.72;4831733;28;102597;-60
2021/12/11 03:14:44;;;;;;;;;26.25;22.75;;;;;15.76;47.88;97530.34;4846708;28;103568;-60
2021/12/11 03:17:11;;;;;;;;;28.50;25.50;;;;;15.75;48.07;97542.34;4858655;28;102454;-59
2021/12/11 03:19:41;;;;;;;;;34.00;24.50;;;;;15.76;47.55;97554.88;4839477;28;107810;-59
2021/12/11 03:22:11;;;;;;;;;32.50;29.25;;;;;15.75;48.14;97545.06;4833365;28;102952;-60
2021/12/11 03:24:38;;;;;;;;;31.25;26.25;;;;;15.74;47.74;97535.25;4858342;28;103296;-60
2021/12/11 03:27:06;;;;;;;;;34.00;28.00;;;;;15.75;47.80;97539.63;4862592;28;103427;-60
2021/12/11 03:29:33;;;;;;;;;28.25;25.25;;;;;15.74;47.97;97537.97;4855520;28;104376;-60
2021/12/11 03:32:01;;;;;;;;;32.00;27.75;;;;;15.74;48.21;97548.06;4852940;28;103085;-60
2021/12/11 03:34:28;;;;;;;;;17.00;9.00;;;;;15.75;48.30;97552.44;4862890;28;105613;-60
2021/12/11 03:36:56;;;;;;;;;26.75;24.25;;;;;15.74;48.16;97556.22;4832916;28;102278;-60
2021/12/11 03:39:28;;;;;;;;;32.00;25.75;;;;;15.75;47.83;97555.16;4837541;28;104821;-60
2021/12/11 03:41:56;;;;;;;;;26.00;22.25;;;;;15.75;47.85;97558.69;4864598;28;102627;-60
2021/12/11 03:44:23;;;;;;;;;27.75;25.25;;;;;15.74;47.72;97564.41;4836107;28;103369;-60
2021/12/11 03:46:52;;;;;;;;;25.75;23.25;;;;;15.74;48.24;97569.84;4834402;28;102585;-59
2021/12/11 03:49:22;;;;;;;;;28.00;23.50;;;;;15.75;47.68;97571.50;4839791;28;104344;-60
2021/12/11 03:51:50;;;;;;;;;28.25;24.25;;;;;15.74;47.41;97570.69;4843631;28;102539;-60
2021/12/11 03:54:20;;;;;;;;;20.00;17.00;;;;;15.74;47.87;97573.41;4820115;28;102690;-60
2021/12/11 03:56:47;;;;;;;;;28.75;24.00;;;;;15.74;47.67;97569.84;4851848;28;102608;-60
2021/12/11 03:59:15;;;;;;;;;5.00;1.00;;;;;15.73;47.85;97566.31;4850563;28;105258;-60
2021/12/11 04:01:49;;;;;;;;;27.00;23.75;;;;;15.73;47.66;97566.31;4853851;28;102192;-60
2021/12/11 04:04:17;;;;;;;;;29.00;23.50;;;;;15.74;47.74;97569.84;4827478;28;102520;-60
2021/12/11 04:06:45;;;;;;;;;19.00;17.25;;;;;15.72;47.64;97572.81;4855541;28;102671;-60
2021/12/11 04:09:13;;;;;;;;;28.75;23.00;;;;;15.74;47.48;97569.84;4824884;28;104113;-60
2021/12/11 04:11:40;;;;;;;;;26.25;23.00;;;;;15.73;47.55;97573.66;4814225;28;102582;-60
2021/12/11 04:14:15;;;;;;;;;32.00;25.25;;;;;15.73;47.70;97569.03;4816622;28;102582;-60
2021/12/11 04:16:43;;;;;;;;;25.50;25.50;;;;;15.72;47.65;97572.81;4835656;28;102647;-60
2021/12/11 04:19:10;;;;;;;;;22.25;20.75;;;;;15.73;47.66;97582.66;4851712;28;109124;-60
2021/12/11 04:21:38;;;;;;;;;28.75;23.25;;;;;15.73;47.32;97585.38;4832891;28;102471;-60
2021/12/11 04:24:06;;;;;;;;;29.50;23.00;;;;;15.73;47.62;97579.09;4837936;28;102596;-59
2021/12/11 04:26:33;;;;;;;;;29.00;24.75;;;;;15.72;47.76;97583.72;4833771;28;102855;-59
2021/12/11 04:29:01;;;;;;;;;32.75;24.50;;;;;15.73;47.24;97584.56;4850401;28;103033;-60
2021/12/11 04:31:29;;;;;;;;;30.00;24.25;;;;;15.73;47.50;97579.94;4854239;28;102659;-60
2021/12/11 04:33:59;;;;;;;;;29.50;22.75;;;;;15.74;47.42;97586.22;4856749;28;102621;-60
2021/12/11 04:36:28;;;;;;;;;25.25;22.00;;;;;15.74;47.84;97584.31;4839795;28;102645;-59
2021/12/11 04:38:55;;;;;;;;;24.75;19.25;;;;;15.73;47.37;97590.84;4852779;28;104273;-60
2021/12/11 04:41:35;;;;;;;;;25.00;23.25;;;;;15.72;47.45;97586.44;4831538;28;102461;-60
2021/12/11 04:44:06;;;;;;;;;26.00;21.25;;;;;15.74;47.32;97594.38;4849917;28;102855;-59
2021/12/11 04:46:34;;;;;;;;;29.50;26.25;;;;;15.73;47.07;97601.72;4840395;28;103298;-60
2021/12/11 04:49:40;;;;;;;;;29.50;24.50;;;;;15.73;47.57;97609.09;4837899;28;103042;-60
2021/12/11 04:52:04;;;;;;;;;30.50;27.50;;;;;15.73;47.09;97607.19;4828867;28;105455;-59
2021/12/11 04:57:51;;;;;;;;;25.75;22.25;;;;;15.71;47.13;97603.91;4852161;28;102610;-60
2021/12/11 05:00:33;;;;;;;;;29.50;24.00;;;;;15.72;47.34;97610.16;4842626;28;109402;-60
2021/12/11 05:11:20;;;;;;;;;29.75;26.50;;;;;15.71;47.48;97628.44;4855897;28;104334;-60
2021/12/11 05:13:47;;;;;;;;;33.50;25.75;;;;;15.71;47.55;97631.16;4827164;28;103579;-60
2021/12/11 05:16:15;;;;;;;;;29.00;23.75;;;;;15.71;47.21;97635.78;4862142;28;102607;-60
2021/12/11 05:18:43;;;;;;;;;32.00;26.25;;;;;15.71;47.21;97642.06;4831130;28;102596;-60
2021/12/11 05:21:17;;;;;;;;;29.75;26.75;;;;;15.70;47.17;97642.31;4844041;28;109727;-60
2021/12/11 05:23:45;;;;;;;;;32.00;24.75;;;;;15.72;47.51;97645.59;4846127;28;102439;-60
2021/12/11 05:26:12;;;;;;;;;29.50;27.25;;;;;15.71;47.67;97642.06;4847046;28;102472;-60
2021/12/11 05:28:39;;;;;;;;;27.50;24.00;;;;;15.72;47.44;97648.31;4836019;28;102425;-60
2021/12/11 05:31:09;;;;;;;;;27.50;24.25;;;;;15.71;47.39;97647.53;4833020;28;104154;-60
2021/12/11 05:33:36;;;;;;;;;23.75;21.75;;;;;15.71;47.57;97647.53;4825826;28;104285;-60
2021/12/11 05:36:06;;;;;;;;;30.25;24.25;;;;;15.71;47.03;97652.97;4837839;28;102726;-60
2021/12/11 05:38:35;;;;;;;;;29.00;21.50;;;;;15.70;47.10;97651.31;4823230;28;102889;-60
2021/12/11 05:41:04;;;;;;;;;25.00;23.50;;;;;15.71;47.35;97652.97;4832703;28;104017;-60
2021/12/11 05:43:32;;;;;;;;;36.00;28.25;;;;;15.71;47.48;97650.25;4835300;28;102771;-60
2021/12/11 05:45:59;;;;;;;;;30.75;25.25;;;;;15.71;47.85;97657.59;4825567;28;102684;-59
2021/12/11 05:48:26;;;;;;;;;29.50;24.50;;;;;15.70;47.62;97662.22;4843413;28;103970;-60
2021/12/11 05:50:56;;;;;;;;;30.50;25.75;;;;;15.70;47.07;97669.56;4822986;28;104139;-60
2021/12/11 05:53:23;;;;;;;;;33.00;24.75;;;;;15.70;47.71;97667.66;4845772;28;102455;-59
2021/12/11 05:55:52;;;;;;;;;27.25;25.25;;;;;15.69;47.21;97665.19;4841293;28;103618;-60
2021/12/11 06:01:34;;;;;;;;;29.25;24.00;;;;;15.71;47.01;97680.22;4750273;29;107909;-60
2021/12/11 06:04:05;;;;;;;;;25.25;23.00;;;;;15.69;47.58;97676.91;4848997;28;102726;-60
2021/12/11 06:06:32;;;;;;;;;29.75;24.25;;;;;15.69;46.71;97682.38;4848473;28;104178;-60
2021/12/11 06:09:00;;;;;;;;;27.00;24.00;;;;;15.69;47.33;97681.53;4830441;28;102755;-60
2021/12/11 06:11:27;;;;;;;;;31.50;25.75;;;;;15.70;47.54;97694.94;4833642;28;104143;-60
2021/12/11 06:13:55;;;;;;;;;29.50;23.25;;;;;15.70;47.29;97692.19;4829983;28;102522;-59
2021/12/11 06:16:22;;;;;;;;;28.25;23.00;;;;;15.70;47.50;97694.94;4846263;28;108129;-60
2021/12/11 06:18:49;;;;;;;;;27.50;24.00;;;;;15.70;47.44;97703.09;4853207;28;102421;-60
2021/12/11 06:21:17;;;;;;;;;21.50;19.25;;;;;15.69;47.38;97696.00;4834720;28;105709;-60
2021/12/11 06:23:44;;;;;;;;;27.00;24.00;;;;;15.70;47.19;97697.66;4819956;28;102529;-60
2021/12/11 06:26:11;;;;;;;;;35.25;28.25;;;;;15.69;47.46;97709.63;4854481;28;103878;-60
2021/12/11 06:28:38;;;;;;;;;32.25;26.75;;;;;15.70;46.81;97710.44;4847303;28;104562;-60
2021/12/11 06:31:06;;;;;;;;;28.75;23.75;;;;;15.69;47.24;97720.53;4832780;28;104095;-59
2021/12/11 06:33:33;;;;;;;;;33.50;25.75;;;;;15.68;47.31;97713.41;4835264;28;103388;-60
2021/12/11 06:36:14;;;;;;;;;27.00;23.50;;;;;15.68;47.28;97716.16;4854190;28;103345;-60
2021/12/11 06:38:43;;;;;;;;;24.25;22.50;;;;;15.69;47.07;97717.78;4838273;28;103708;-60
2021/12/11 06:41:12;;;;;;;;;29.25;25.50;;;;;15.68;47.04;97707.97;4829510;28;105453;-60
2021/12/11 06:43:39;;;;;;;;;35.50;29.50;;;;;15.68;47.48;97707.97;4832442;28;103069;-60
2021/12/11 06:46:07;;;;;;;;;39.50;33.00;;;;;15.69;47.46;97715.06;4854366;28;102728;-60
2021/12/11 06:48:34;;;;;;;;;47.50;38.75;;;;;15.67;47.28;97719.94;4840795;28;102591;-60
2021/12/11 06:51:02;;;;;;;;;53.75;42.75;;;;;15.68;47.69;97728.94;4834028;28;103444;-60
2021/12/11 06:53:38;;;;;;;;;56.25;44.00;;;;;15.67;47.53;97744.47;4841484;28;102305;-59
2021/12/11 06:56:06;;;;;;;;;60.50;46.25;;;;;15.68;47.57;97748.84;4865191;28;102921;-59
2021/12/11 06:58:33;;;;;;;;;57.50;46.75;;;;;15.67;47.06;97747.19;4854808;28;102649;-60
2021/12/11 07:01:00;;;;;;;;;54.50;44.75;;;;;15.68;47.88;97754.31;4847642;28;104105;-59
2021/12/11 07:03:28;;;;;;;;;55.50;44.50;;;;;15.68;47.42;97757.03;4856515;28;106057;-60
2021/12/11 07:05:55;;;;;;;;;58.00;43.25;;;;;15.68;47.60;97762.47;4843377;28;103242;-60
2021/12/11 07:08:28;;;;;;;;;60.50;46.00;;;;;15.69;47.68;97769.59;4874445;28;102720;-59
2021/12/11 07:10:57;;;;;;;;;52.00;40.75;;;;;15.69;47.85;97780.47;4849923;28;105595;-59
2021/12/11 07:13:24;;;;;;;;;53.00;43.00;;;;;15.63;47.39;97787.75;4820871;28;102599;-59
2021/12/11 07:15:52;;;;;;;;;54.75;43.50;;;;;15.57;47.64;97793.41;4858297;28;102824;-59
2021/12/11 07:18:19;;;;;;;;;50.50;41.00;;;;;15.52;47.74;97796.06;4830576;28;103120;-60
2021/12/11 07:20:47;;;;;;;;;58.50;44.75;;;;;15.46;46.84;97799.75;4859657;28;103728;-60
2021/12/11 07:23:14;;;;;;;;;57.25;42.50;;;;;15.42;46.34;97806.78;4851216;28;103538;-60
2021/12/11 07:25:53;;;;;;;;;60.75;47.25;;;;;15.38;46.08;97805.66;4831983;28;103953;-60
2021/12/11 07:28:23;;;;;;;;;64.75;47.50;;;;;15.34;45.03;97809.94;4849505;28;103066;-60
2021/12/11 07:30:51;;;;;;;;;61.00;47.50;;;;;15.29;44.73;97835.22;4850513;28;104080;-60
2021/12/11 07:33:19;;;;;;;;;61.00;46.00;;;;;15.26;45.26;97833.00;4836955;28;103014;-59
2021/12/11 07:35:46;;;;;;;;;57.25;45.00;;;;;15.25;45.26;97830.50;4854911;28;103376;-60
2021/12/11 07:38:14;;;;;;;;;62.00;47.00;;;;;15.18;45.22;97838.84;4839579;28;102595;-60
2021/12/11 07:40:45;;;;;;;;;55.25;44.50;;;;;15.21;46.07;97845.72;4830484;28;105654;-60
2021/12/11 07:43:12;;;;;;;;;59.25;46.25;;;;;15.17;45.85;97843.47;4841955;28;102484;-59
2021/12/11 07:48:36;;;;;;;;;61.50;46.00;;;;;15.09;46.72;97860.22;5431822;23;103866;-61
2021/12/11 07:51:04;;;;;;;;;62.25;46.50;;;;;15.07;46.55;97870.56;4846604;28;103802;-62
2021/12/11 07:53:31;;;;;;;;;58.50;43.50;;;;;15.07;46.71;97869.72;4864182;28;103691;-61
2021/12/11 07:55:59;;;;;;;;;58.25;44.75;;;;;15.07;46.55;97865.13;4854662;28;102116;-62
2021/12/11 07:58:26;;;;;;;;;59.00;45.50;;;;;15.07;46.34;97856.13;4854834;28;102690;-62
2021/12/11 08:00:53;;;;;;;;;60.50;45.50;;;;;15.03;46.01;97861.25;4854395;28;104212;-62
2021/12/11 08:03:21;;;;;;;;;44.50;35.00;;;;;15.01;45.92;97855.19;4838331;28;102910;-62
2021/12/11 08:05:54;;;;;;;;;59.25;45.00;;;;;15.01;45.80;97859.81;4851722;28;105015;-62
2021/12/11 08:08:21;;;;;;;;;53.25;43.75;;;;;14.99;46.01;97867.41;4853810;28;102622;-62
2021/12/11 08:10:52;;;;;;;;;57.00;45.00;;;;;14.97;45.95;97870.38;4857020;28;104241;-62
2021/12/11 08:13:19;;;;;;;;;56.25;44.75;;;;;14.95;46.03;97869.78;4844403;28;102854;-61
2021/12/11 08:15:47;;;;;;;;;54.50;43.75;;;;;14.95;45.99;97871.72;4857175;28;103617;-61
2021/12/11 08:18:14;;;;;;;;;57.25;44.00;;;;;14.95;45.68;97875.22;4825355;28;102984;-63
2021/12/11 08:20:42;;;;;;;;;56.00;43.00;;;;;14.94;46.14;97884.50;4860547;28;104024;-62
2021/12/11 08:23:09;;;;;;;;;56.50;43.50;;;;;14.93;46.05;97891.00;4862299;28;104934;-62
2021/12/11 08:25:37;;;;;;;;;49.75;41.50;;;;;14.95;46.49;97896.22;4847726;28;103408;-62
2021/12/11 08:28:05;;;;;;;;;54.00;42.00;;;;;15.03;45.83;97906.69;4855262;28;103621;-63
2021/12/11 08:30:33;;;;;;;;;52.00;41.00;;;;;15.07;46.11;97905.13;4847560;28;104278;-63
2021/12/11 08:33:00;;;;;;;;;53.25;41.00;;;;;15.11;45.90;97914.44;4844036;28;102483;-63
2021/12/11 08:35:27;;;;;;;;;56.50;40.75;;;;;15.13;46.29;97924.00;4841145;28;105085;-62
2021/12/11 08:37:54;;;;;;;;;51.50;41.50;;;;;15.18;47.09;97923.28;4859124;28;102628;-63
2021/12/11 08:40:24;;;;;;;;;52.75;40.25;;;;;15.22;47.77;97937.25;4848085;28;104266;-64
2021/12/11 08:42:51;;;;;;;;;51.75;42.00;;;;;15.24;48.14;97946.81;4857329;28;102595;-63
2021/12/11 08:45:24;;;;;;;;;51.75;39.00;;;;;15.28;48.93;97956.13;4861290;28;103178;-63
2021/12/11 08:47:57;;;;;;;;;59.50;42.75;;;;;15.32;49.12;97956.44;4858270;28;102638;-63
2021/12/11 08:50:25;;;;;;;;;51.75;42.50;;;;;15.34;49.22;97960.59;4861296;28;110710;-62
2021/12/11 08:52:52;;;;;;;;;46.75;37.00;;;;;15.36;49.14;97960.34;4858949;28;102568;-63
2021/12/11 08:55:25;;;;;;;;;47.50;39.00;;;;;15.39;49.10;97963.41;4866039;28;102531;-62
2021/12/11 08:57:52;;;;;;;;;43.25;38.00;;;;;15.40;49.12;97967.75;4852397;28;102525;-62
2021/12/11 09:00:22;;;;;;;;;52.25;38.25;;;;;15.41;48.89;97974.03;4849764;28;104069;-61
2021/12/11 09:03:04;;;;;;;;;51.00;40.00;;;;;15.41;49.48;97979.50;4866453;28;110005;-62
2021/12/11 09:05:40;;;;;;;;;52.75;40.00;;;;;15.37;49.04;97990.06;4857875;28;104761;-63
2021/12/11 09:08:16;;;;;;;;;57.50;42.00;;;;;15.34;48.16;97978.84;4856167;28;102414;-63
2021/12/11 09:10:48;;;;;;;;;53.25;41.00;;;;;15.31;48.02;98003.84;4858853;28;110371;-63
2021/12/11 09:13:23;;;;;;;;;54.25;43.50;;;;;15.28;47.09;98001.59;4851055;28;103942;-62
2021/12/11 09:15:55;;;;;;;;;59.00;45.25;;;;;15.31;47.67;98001.94;4854023;28;102282;-63
2021/12/11 09:18:26;;;;;;;;;53.50;41.75;;;;;15.35;47.12;98014.00;4858520;28;102461;-63
2021/12/11 09:21:02;;;;;;;;;55.00;41.75;;;;;15.39;46.24;98006.16;4847946;28;104047;-62
2021/12/11 09:23:42;;;;;;;;;53.25;43.50;;;;;15.41;45.94;98015.75;4856370;28;103358;-63
2021/12/11 09:26:15;;;;;;;;;50.00;40.25;;;;;15.43;45.79;98012.78;4856232;28;103699;-63
2021/12/11 09:28:58;;;;;;;;;51.00;41.00;;;;;15.44;45.73;98019.88;4859786;28;102687;-64
2021/12/11 09:31:33;;;;;;;;;57.25;42.75;;;;;15.42;46.30;98024.75;4860765;28;109735;-63
2021/12/11 09:34:08;;;;;;;;;53.75;44.75;;;;;15.39;45.32;98023.34;4837896;28;102747;-63
2021/12/11 09:36:40;;;;;;;;;57.25;42.25;;;;;15.36;46.08;98031.16;4856342;28;102330;-63
2021/12/11 09:39:17;;;;;;;;;63.75;45.00;;;;;15.36;46.19;98031.16;4850134;28;104691;-61
2021/12/11 09:41:44;;;;;;;;;58.75;45.75;;;;;15.36;45.88;98042.06;4860380;28;103986;-63
2021/12/11 09:44:20;;;;;;;;;55.75;42.75;;;;;15.36;46.36;98047.50;4856874;28;104625;-68
2021/12/11 09:47:00;;;;;;;;;56.75;43.00;;;;;15.38;46.48;98040.75;4866841;28;102585;-68
2021/12/11 09:49:35;;;;;;;;;57.00;42.25;;;;;15.40;46.95;98052.22;4859205;28;102506;-69
2021/12/11 09:52:16;;;;;;;;;56.00;43.00;;;;;15.43;47.33;98048.19;4860009;28;104156;-68
2021/12/11 09:54:48;;;;;;;;;54.25;42.75;;;;;15.44;47.64;98058.84;4859785;28;102540;-67
2021/12/11 09:57:19;;;;;;;;;53.25;41.75;;;;;15.45;48.26;98063.22;4860720;28;102359;-68
2021/12/11 09:59:47;;;;;;;;;53.50;42.50;;;;;15.47;48.12;98062.97;4857062;28;102849;-67
2021/12/11 10:02:20;;;;;;;;;54.50;41.00;;;;;15.47;48.60;98066.53;4857890;28;104080;-68
2021/12/11 10:04:58;;;;;;;;;59.25;43.00;;;;;15.48;48.11;98067.38;4854074;28;102736;-66
2021/12/11 10:07:34;;;;;;;;;59.50;45.25;;;;;15.46;48.60;98074.94;4840883;28;102625;-66
2021/12/11 10:10:15;;;;;;;;;55.25;41.75;;;;;15.45;48.57;98068.66;4841441;28;104852;-66
2021/12/11 10:12:46;;;;;;;;;51.50;42.75;;;;;15.47;48.30;98074.69;4853165;28;103983;-67
2021/12/11 10:15:23;;;;;;;;;44.50;33.75;;;;;15.51;48.61;98086.78;4857280;28;102484;-66
2021/12/11 10:18:12;;;;;;;;;55.75;42.00;;;;;15.51;48.63;98084.06;4860095;28;103872;-66
2021/12/11 10:20:48;;;;;;;;;51.75;42.00;;;;;15.52;48.93;98084.91;4839108;28;102984;-66
2021/12/11 10:23:17;;;;;;;;;56.25;42.00;;;;;15.52;49.02;98083.00;4856970;28;104064;-63
2021/12/11 10:25:45;;;;;;;;;53.25;42.75;;;;;15.54;49.01;98082.75;4857042;28;103990;-63
2021/12/11 10:28:13;;;;;;;;;47.25;35.00;;;;;15.55;48.87;98076.22;4864034;28;102385;-64
2021/12/11 10:30:45;;;;;;;;;52.75;37.00;;;;;15.55;48.55;98077.06;4868767;28;102478;-63
2021/12/11 10:33:17;;;;;;;;;52.00;42.75;;;;;15.55;48.29;98082.50;4847911;28;104058;-63
2021/12/11 10:35:48;;;;;;;;;55.50;42.00;;;;;15.56;49.27;98086.06;4860827;28;102191;-63
2021/12/11 10:38:15;;;;;;;;;53.25;40.00;;;;;15.55;48.82;98089.84;4854103;28;102397;-61
2021/12/11 10:40:44;;;;;;;;;52.50;42.25;;;;;15.58;48.52;98089.34;4859889;28;102710;-63
2021/12/11 10:43:18;;;;;;;;;57.00;42.00;;;;;15.59;48.57;98091.00;4869015;28;104038;-62
2021/12/11 10:45:45;;;;;;;;;51.00;40.00;;;;;15.57;48.01;98093.16;4859059;28;102393;-61
2021/12/11 10:48:16;;;;;;;;;56.25;40.25;;;;;15.60;48.27;98096.22;4845598;28;102498;-62
2021/12/11 10:50:47;;;;;;;;;57.25;42.50;;;;;15.58;47.56;98086.63;4867182;28;102886;-63
2021/12/11 10:53:16;;;;;;;;;51.25;40.75;;;;;15.60;47.85;98087.22;4866083;28;104128;-63
2021/12/11 10:55:43;;;;;;;;;58.00;42.25;;;;;15.60;47.57;98090.78;4847660;28;102646;-62
2021/12/11 10:58:18;;;;;;;;;52.75;40.25;;;;;15.60;47.76;98098.94;4863935;28;102397;-62
2021/12/11 11:00:46;;;;;;;;;49.00;39.50;;;;;15.61;47.69;98102.50;4867168;28;102545;-63
2021/12/11 11:03:15;;;;;;;;;50.25;37.75;;;;;15.61;47.64;98097.88;4865278;28;104070;-63
2021/12/11 11:05:42;;;;;;;;;48.00;37.25;;;;;15.61;47.81;98100.63;4870679;28;110772;-62
2021/12/11 11:08:09;;;;;;;;;49.50;37.75;;;;;15.62;47.43;98104.16;4848778;28;102691;-63
2021/12/11 11:10:39;;;;;;;;;50.50;40.50;;;;;15.63;47.30;98103.06;4862878;28;103225;-63
2021/12/11 11:13:10;;;;;;;;;51.00;40.25;;;;;15.63;47.21;98095.72;4849289;28;104111;-62
2021/12/11 11:15:37;;;;;;;;;48.50;38.00;;;;;15.63;47.17;98108.53;4869875;28;102246;-62
2021/12/11 11:18:05;;;;;;;;;50.00;37.50;;;;;15.62;47.29;98102.25;4865611;28;102569;-62
2021/12/11 11:20:36;;;;;;;;;51.50;40.50;;;;;15.62;47.23;98110.41;4865937;28;102572;-63
2021/12/11 11:23:03;;;;;;;;;55.25;39.00;;;;;15.63;47.54;98112.06;4870353;28;103999;-63
2021/12/11 11:25:33;;;;;;;;;48.75;36.75;;;;;15.64;47.31;98121.09;4864470;28;102494;-63
2021/12/11 11:28:06;;;;;;;;;49.50;40.00;;;;;15.65;46.98;98122.75;4863816;28;102539;-63
2021/12/11 11:30:39;;;;;;;;;42.25;34.25;;;;;15.64;46.86;98131.97;4869533;28;102513;-62
2021/12/11 11:33:10;;;;;;;;;51.75;39.50;;;;;15.64;47.07;98134.72;4857615;28;104146;-63
2021/12/11 11:35:42;;;;;;;;;46.00;38.25;;;;;15.65;46.85;98139.09;4863939;28;102383;-61
2021/12/11 11:38:15;;;;;;;;;49.50;37.50;;;;;15.65;47.34;98125.47;4859732;28;102875;-62
2021/12/11 11:40:44;;;;;;;;;48.00;37.75;;;;;15.67;46.66;98134.22;4860958;28;105289;-62
2021/12/11 11:43:11;;;;;;;;;42.75;35.50;;;;;15.67;46.83;98136.94;4856458;28;103159;-62
2021/12/11 11:45:38;;;;;;;;;50.00;38.75;;;;;15.66;46.92;98127.13;4867051;28;102446;-63